Terminal Aerodrome Forecast
Issued by NWS

Home | Current Version | Previous Version | Text Only | Print | Product List | Glossary On
Versions: 1 2 3 4 5 6 7 8 9 10 11 12 13 14 15 16 17 18 19 20 21 22 23 24 25 26
079
FTUS43 KGLD 232335
TAFMCK
TAF
KMCK 232335Z 2400/2424 17020G28KT P6SM FEW250
     FM240600 15014G23KT P6SM BKN200 WS020/18050KT
     FM240900 16010KT P6SM VCTS SCT060CB BKN150
     FM241100 32013G20KT P6SM FEW020 FEW200
     FM241700 34010KT P6SM SKC=

USA.gov is the U.S. government's official web portal to all federal, state and local government web resources and services.